Time;durP1;ratioP1;P1;durP2;ratioP2;P2;SDS_P1;SDS_P2;PMS_P1;PMS_P2;Temp;Humidity;BMP_temperature;BMP_pressure;BME280_temperature;BME280_humidity;BME280_pressure;Samples;Min_cycle;Max_cycle;Signal;HPM_P1;HPM_P2
2022/03/31 00:01:34;;;;;;;5.13;2.88;;;;;;;2.85;100.00;100465.66;5011427;28;20028;-66
2022/03/31 00:03:59;;;;;;;6.30;3.20;;;;;;;2.78;100.00;100466.19;5012317;28;20032;-66
2022/03/31 00:06:25;;;;;;;5.38;3.60;;;;;;;2.74;100.00;100454.81;5013231;28;20092;-66
2022/03/31 00:08:50;;;;;;;4.10;3.30;;;;;;;2.57;100.00;100455.81;5012806;28;20022;-66
2022/03/31 00:11:17;;;;;;;5.03;3.95;;;;;;;2.51;100.00;100451.25;5012540;28;20026;-66
2022/03/31 00:13:43;;;;;;;5.75;3.40;;;;;;;2.61;100.00;100449.91;5011112;28;20022;-66
2022/03/31 00:16:09;;;;;;;4.72;3.33;;;;;;;2.54;100.00;100448.78;5012112;28;20022;-66
2022/03/31 00:18:35;;;;;;;7.95;3.53;;;;;;;2.58;100.00;100458.47;5010232;28;20042;-65
2022/03/31 00:24:22;;;;;;;5.30;3.50;;;;;;;2.69;100.00;100454.59;5012185;28;20117;-66
2022/03/31 00:26:47;;;;;;;5.22;4.30;;;;;;;2.74;100.00;100451.31;5010134;28;20108;-66
2022/03/31 00:29:13;;;;;;;4.63;3.97;;;;;;;2.57;100.00;100448.88;5013105;28;20498;-65
2022/03/31 00:31:39;;;;;;;4.75;3.83;;;;;;;2.68;100.00;100445.03;5012642;28;20030;-66
2022/03/31 00:34:05;;;;;;;4.32;3.40;;;;;;;2.69;100.00;100448.53;5011336;28;20113;-66
2022/03/31 00:36:30;;;;;;;4.97;2.70;;;;;;;2.65;100.00;100434.50;5011061;28;20022;-66
2022/03/31 00:41:40;;;;;;;4.30;3.05;;;;;;;2.75;100.00;100437.50;5007778;28;20084;-66
2022/03/31 00:44:06;;;;;;;5.40;3.30;;;;;;;2.82;100.00;100443.03;5000007;28;20477;-66
2022/03/31 00:46:32;;;;;;;4.88;3.00;;;;;;;2.78;100.00;100442.81;5011718;28;20044;-66
2022/03/31 00:48:58;;;;;;;5.07;3.17;;;;;;;2.68;100.00;100437.22;5011267;28;20045;-66
2022/03/31 00:51:23;;;;;;;6.82;3.72;;;;;;;2.73;100.00;100445.22;5012993;28;20044;-66
2022/03/31 00:53:49;;;;;;;4.38;3.40;;;;;;;2.62;100.00;100438.69;5010630;28;20032;-66
2022/03/31 00:56:16;;;;;;;6.20;3.85;;;;;;;2.65;100.00;100436.25;5011463;28;20026;-66
2022/03/31 00:58:43;;;;;;;4.57;3.33;;;;;;;2.68;100.00;100437.22;5012673;28;20034;-66
2022/03/31 01:01:09;;;;;;;3.72;2.88;;;;;;;2.43;100.00;100444.81;5011121;28;20025;-66
2022/03/31 01:03:35;;;;;;;6.28;3.50;;;;;;;2.43;100.00;100437.94;4993487;28;20029;-66
2022/03/31 01:06:00;;;;;;;8.43;3.72;;;;;;;2.54;100.00;100428.00;5010602;28;20080;-66
2022/03/31 01:08:26;;;;;;;4.63;4.07;;;;;;;2.47;100.00;100424.25;5010316;28;20104;-66
2022/03/31 01:10:53;;;;;;;4.15;3.47;;;;;;;2.40;100.00;100414.44;5012502;28;20351;-65
2022/03/31 01:13:19;;;;;;;5.03;3.38;;;;;;;2.42;100.00;100427.47;5008631;28;20101;-66
2022/03/31 01:15:45;;;;;;;5.63;3.60;;;;;;;2.35;100.00;100429.78;5012127;28;20141;-65
2022/03/31 01:18:10;;;;;;;6.45;4.25;;;;;;;2.32;100.00;100418.38;5009663;28;20037;-67
2022/03/31 01:20:36;;;;;;;5.45;4.30;;;;;;;2.17;100.00;100414.31;5011771;28;20153;-68
2022/03/31 01:23:04;;;;;;;5.07;3.80;;;;;;;2.20;100.00;100418.75;5008536;28;20029;-67
2022/03/31 01:25:30;;;;;;;5.10;3.78;;;;;;;2.18;100.00;100416.09;5010063;28;20484;-67
2022/03/31 01:27:55;;;;;;;6.38;4.63;;;;;;;2.23;100.00;100408.50;5011880;28;20100;-67
2022/03/31 01:30:23;;;;;;;5.93;4.25;;;;;;;2.24;100.00;100414.56;5008669;28;20022;-67
2022/03/31 01:32:49;;;;;;;5.13;4.18;;;;;;;2.20;100.00;100410.97;5010707;28;20493;-67
2022/03/31 01:35:15;;;;;;;4.78;4.28;;;;;;;2.16;100.00;100409.06;5007970;28;20025;-67
2022/03/31 01:37:42;;;;;;;5.40;4.20;;;;;;;2.15;100.00;100408.16;5011492;28;20069;-67
2022/03/31 01:40:09;;;;;;;7.15;4.82;;;;;;;2.16;100.00;100396.09;5010856;28;20038;-67
2022/03/31 01:42:35;;;;;;;5.32;4.30;;;;;;;2.04;100.00;100396.44;5009655;28;20018;-67
2022/03/31 01:45:02;;;;;;;6.78;4.65;;;;;;;2.13;100.00;100394.25;5011394;28;20030;-67
2022/03/31 01:47:28;;;;;;;6.50;4.97;;;;;;;2.21;100.00;100391.97;5009430;28;20450;-67
2022/03/31 01:49:53;;;;;;;6.90;5.00;;;;;;;2.10;100.00;100394.09;5010343;28;20075;-67
2022/03/31 01:52:20;;;;;;;8.48;4.88;;;;;;;2.12;100.00;100396.78;5012259;28;20025;-67
2022/03/31 01:54:45;;;;;;;10.23;5.40;;;;;;;2.10;100.00;100390.63;5010786;28;20030;-67
2022/03/31 01:57:12;;;;;;;6.97;4.93;;;;;;;2.05;100.00;100382.66;5009106;28;20458;-67
2022/03/31 01:59:41;;;;;;;7.25;5.57;;;;;;;2.13;100.00;100390.75;5009417;28;20061;-67
2022/03/31 02:02:08;;;;;;;7.03;5.07;;;;;;;2.08;100.00;100385.38;5009945;28;20483;-67
2022/03/31 02:04:33;;;;;;;9.55;5.70;;;;;;;2.10;100.00;100388.03;4993932;28;20478;-68
2022/03/31 02:06:59;;;;;;;7.68;5.85;;;;;;;2.00;100.00;100382.44;5011331;28;20025;-65
2022/03/31 02:09:25;;;;;;;19.40;5.70;;;;;;;1.98;100.00;100373.72;5011908;28;20381;-68
2022/03/31 02:11:52;;;;;;;7.38;5.47;;;;;;;1.98;100.00;100383.19;5010906;28;20160;-67
2022/03/31 02:14:19;;;;;;;10.93;5.80;;;;;;;1.97;100.00;100376.25;5013687;28;20037;-65
2022/03/31 02:16:45;;;;;;;7.55;5.22;;;;;;;1.95;100.00;100376.16;5014245;28;20034;-66
2022/03/31 02:19:11;;;;;;;7.90;5.13;;;;;;;2.01;100.00;100381.63;4996362;28;20052;-67
2022/03/31 02:21:37;;;;;;;8.90;5.20;;;;;;;2.11;100.00;100379.44;5014190;28;20022;-67
2022/03/31 02:24:03;;;;;;;8.63;5.07;;;;;;;2.01;100.00;100376.44;5008247;28;20030;-67
2022/03/31 02:26:28;;;;;;;8.93;4.97;;;;;;;2.04;100.00;100385.19;5012595;28;20388;-67
2022/03/31 02:28:54;;;;;;;10.02;4.72;;;;;;;2.12;100.00;100386.41;5015761;28;20029;-68
2022/03/31 02:31:19;;;;;;;6.88;4.25;;;;;;;2.13;100.00;100391.66;5015525;28;20103;-67
2022/03/31 02:33:44;;;;;;;6.97;4.47;;;;;;;2.15;100.00;100374.41;5014166;28;20393;-66
2022/03/31 02:36:09;;;;;;;6.38;4.55;;;;;;;2.05;100.00;100371.38;5014275;28;20053;-68
2022/03/31 02:38:36;;;;;;;6.07;4.15;;;;;;;2.12;100.00;100360.44;5012892;28;20032;-66
2022/03/31 02:41:03;;;;;;;7.47;3.58;;;;;;;2.17;100.00;100358.91;5014576;28;20029;-66
2022/03/31 02:43:28;;;;;;;7.03;4.53;;;;;;;2.20;100.00;100348.69;5014824;28;20438;-65
2022/03/31 02:45:53;;;;;;;5.90;3.17;;;;;;;2.14;100.00;100335.44;5013701;28;20025;-65
2022/03/31 02:48:19;;;;;;;6.35;3.13;;;;;;;2.10;100.00;100342.19;5014582;28;20033;-65
2022/03/31 02:50:44;;;;;;;4.30;3.15;;;;;;;2.08;100.00;100346.44;5014909;28;20389;-65
2022/03/31 02:55:53;;;;;;;4.97;3.53;;;;;;;2.06;100.00;100345.47;5013989;28;20536;-66
2022/03/31 02:58:18;;;;;;;4.72;3.22;;;;;;;2.07;100.00;100341.19;5013813;28;20021;-65
2022/03/31 03:00:44;;;;;;;5.55;4.03;;;;;;;2.14;100.00;100340.63;5012986;28;20354;-65
2022/03/31 03:03:11;;;;;;;6.75;4.22;;;;;;;2.11;100.00;100332.72;4996825;28;20060;-65
2022/03/31 03:05:37;;;;;;;8.60;4.50;;;;;;;2.11;100.00;100332.72;5014680;28;20037;-65
2022/03/31 03:08:03;;;;;;;7.07;4.35;;;;;;;2.08;100.00;100330.00;5012881;28;20481;-65
2022/03/31 03:10:29;;;;;;;5.90;4.22;;;;;;;2.16;100.00;100328.59;5012984;28;20083;-65
2022/03/31 03:12:57;;;;;;;11.25;4.80;;;;;;;2.18;100.00;100324.34;5010581;28;20061;-65
2022/03/31 03:15:25;;;;;;;6.22;4.20;;;;;;;2.23;100.00;100320.25;5012046;28;20071;-66
2022/03/31 03:17:50;;;;;;;7.72;4.60;;;;;;;2.18;100.00;100329.53;5013888;28;20049;-66
2022/03/31 03:20:18;;;;;;;5.75;4.38;;;;;;;2.12;100.00;100324.09;5012280;28;20026;-65
2022/03/31 03:22:46;;;;;;;7.65;4.22;;;;;;;2.18;100.00;100329.53;5013117;28;20070;-65
2022/03/31 03:25:12;;;;;;;7.93;4.65;;;;;;;2.18;100.00;100330.44;5010638;28;20037;-66
2022/03/31 03:27:42;;;;;;;8.55;5.40;;;;;;;2.25;100.00;100323.81;5012573;28;20029;-67
2022/03/31 03:30:08;;;;;;;9.45;4.80;;;;;;;2.29;100.00;100322.19;5014165;28;20033;-65
2022/03/31 03:32:36;;;;;;;9.07;5.68;;;;;;;2.30;100.00;100321.38;5013556;28;20037;-65
2022/03/31 03:35:03;;;;;;;7.78;5.95;;;;;;;2.36;100.00;100325.13;5013327;28;20057;-66
2022/03/31 03:37:29;;;;;;;11.65;6.40;;;;;;;2.34;100.00;100329.34;4996361;28;20034;-65
2022/03/31 03:39:54;;;;;;;12.30;7.22;;;;;;;2.35;100.00;100338.91;5011981;28;20036;-65
2022/03/31 03:42:20;;;;;;;15.10;7.50;;;;;;;2.30;100.00;100331.78;5005860;28;20030;-65
2022/03/31 03:44:45;;;;;;;10.25;7.22;;;;;;;2.35;100.00;100320.75;5012211;28;20454;-66
2022/03/31 03:47:10;;;;;;;11.98;7.65;;;;;;;2.39;100.00;100320.88;5011828;28;20446;-65
2022/03/31 03:49:36;;;;;;;12.68;7.53;;;;;;;2.41;100.00;100321.81;5012839;28;20029;-65
2022/03/31 03:52:01;;;;;;;11.02;6.47;;;;;;;2.42;100.00;100319.28;5013762;28;20129;-66
2022/03/31 03:54:27;;;;;;;11.52;6.53;;;;;;;2.45;100.00;100319.41;5011646;28;20037;-66
2022/03/31 03:56:52;;;;;;;10.10;6.22;;;;;;;2.43;100.00;100313.28;5012097;28;20022;-66
2022/03/31 03:59:18;;;;;;;11.70;6.55;;;;;;;2.45;100.00;100313.34;5012590;28;20492;-66
2022/03/31 04:01:43;;;;;;;9.38;6.57;;;;;;;2.49;100.00;100318.72;5011062;28;20387;-66
2022/03/31 04:04:08;;;;;;;9.35;6.13;;;;;;;2.50;100.00;100317.00;5013164;28;20034;-66
2022/03/31 04:06:34;;;;;;;9.25;5.80;;;;;;;2.44;100.00;100319.34;5013287;28;20075;-66
2022/03/31 04:08:59;;;;;;;12.43;6.47;;;;;;;2.48;100.00;100323.84;5013186;28;20447;-65
2022/03/31 04:11:25;;;;;;;8.80;5.30;;;;;;;2.45;100.00;100321.13;5013334;28;20037;-67
2022/03/31 04:13:50;;;;;;;9.68;5.45;;;;;;;2.51;100.00;100318.78;5011496;28;20073;-66
2022/03/31 04:16:16;;;;;;;10.10;5.97;;;;;;;2.52;100.00;100315.34;5011845;28;20117;-66
2022/03/31 04:18:42;;;;;;;11.98;5.82;;;;;;;2.51;100.00;100321.41;5013409;28;20054;-67
2022/03/31 04:21:07;;;;;;;7.93;5.50;;;;;;;2.60;100.00;100316.53;5013370;28;20121;-66
2022/03/31 04:23:32;;;;;;;9.57;5.38;;;;;;;2.58;100.00;100310.41;5009790;28;20049;-66
2022/03/31 04:25:58;;;;;;;11.00;5.45;;;;;;;2.58;100.00;100309.50;5012270;28;20499;-66
2022/03/31 04:28:23;;;;;;;7.82;5.30;;;;;;;2.53;100.00;100302.41;5012041;28;20026;-66
2022/03/31 04:30:49;;;;;;;13.48;5.55;;;;;;;2.61;100.00;100309.66;5012486;28;20032;-66
2022/03/31 04:33:14;;;;;;;10.65;5.72;;;;;;;2.63;100.00;100321.88;5012490;28;20076;-67
2022/03/31 04:35:39;;;;;;;8.90;5.20;;;;;;;2.72;100.00;100308.34;5011776;28;20504;-66
2022/03/31 04:38:05;;;;;;;11.10;5.45;;;;;;;2.69;100.00;100309.13;5010917;28;20033;-66
2022/03/31 04:40:32;;;;;;;10.20;6.05;;;;;;;2.77;100.00;100305.94;5012433;28;20470;-66
2022/03/31 04:42:57;;;;;;;8.13;5.00;;;;;;;2.72;100.00;100297.97;5011662;28;20038;-66
2022/03/31 04:45:22;;;;;;;8.10;5.13;;;;;;;2.72;100.00;100297.09;5011129;28;20026;-66
2022/03/31 04:47:48;;;;;;;8.80;5.15;;;;;;;2.74;100.00;100301.53;5009902;28;20018;-67
2022/03/31 04:50:14;;;;;;;10.48;4.63;;;;;;;2.70;100.00;100300.50;5012220;28;20037;-67
2022/03/31 04:52:42;;;;;;;9.02;4.82;;;;;;;2.75;100.00;100303.28;5011894;28;20030;-67
2022/03/31 04:55:07;;;;;;;8.98;5.10;;;;;;;2.74;100.00;100295.44;5011595;28;20034;-67
2022/03/31 04:57:33;;;;;;;9.48;4.60;;;;;;;2.77;100.00;100292.94;5011271;28;20371;-67
2022/03/31 04:59:58;;;;;;;11.13;4.85;;;;;;;2.83;100.00;100301.00;5010936;28;20893;-67
2022/03/31 05:02:23;;;;;;;8.85;4.78;;;;;;;2.78;100.00;100300.81;5010298;28;20041;-67
2022/03/31 05:04:49;;;;;;;14.25;4.85;;;;;;;2.79;100.00;100307.75;5009272;28;20646;-66
2022/03/31 05:07:14;;;;;;;10.00;4.82;;;;;;;2.79;100.00;100299.97;5011429;28;20087;-66
2022/03/31 05:09:41;;;;;;;9.13;4.80;;;;;;;2.82;100.00;100307.00;5012378;28;20489;-67
2022/03/31 05:12:08;;;;;;;10.38;5.68;;;;;;;2.83;100.00;100304.47;5011847;28;20037;-67
2022/03/31 05:14:33;;;;;;;9.80;4.82;;;;;;;2.85;100.00;100297.63;5008192;28;20034;-67
2022/03/31 05:16:58;;;;;;;8.82;4.70;;;;;;;2.69;100.00;100298.72;5009670;28;20105;-67
2022/03/31 05:19:24;;;;;;;9.75;5.18;;;;;;;2.80;100.00;100299.16;5012107;28;20560;-67
2022/03/31 05:21:49;;;;;;;8.63;5.32;;;;;;;2.77;100.00;100295.53;5010827;28;20079;-67
2022/03/31 05:24:15;;;;;;;11.63;5.95;;;;;;;2.81;100.00;100294.88;5011123;28;20037;-67
2022/03/31 05:26:41;;;;;;;10.93;5.13;;;;;;;2.85;100.00;100299.34;5008591;28;20106;-67
2022/03/31 05:29:06;;;;;;;7.15;4.90;;;;;;;2.86;100.00;100302.00;5012052;28;20026;-67
2022/03/31 05:31:32;;;;;;;9.52;4.88;;;;;;;2.83;100.00;100298.38;5009684;28;20028;-67
2022/03/31 05:33:57;;;;;;;10.38;5.68;;;;;;;2.82;100.00;100301.81;5006236;28;20064;-69
2022/03/31 05:36:22;;;;;;;13.23;5.72;;;;;;;2.88;100.00;100299.47;5010410;28;20025;-68
2022/03/31 05:38:48;;;;;;;8.35;5.22;;;;;;;2.84;100.00;100297.56;5012051;28;20394;-66
2022/03/31 05:41:13;;;;;;;15.25;7.68;;;;;;;2.91;100.00;100296.09;5011702;28;20121;-68
2022/03/31 05:43:38;;;;;;;15.10;7.18;;;;;;;2.92;100.00;100290.97;5011939;28;20049;-67
2022/03/31 05:46:04;;;;;;;12.38;5.13;;;;;;;2.92;100.00;100285.75;5010997;28;20034;-68
2022/03/31 05:48:29;;;;;;;10.43;5.40;;;;;;;2.82;100.00;100287.13;5014412;28;20564;-68
2022/03/31 05:50:54;;;;;;;9.43;5.22;;;;;;;2.78;100.00;100282.63;4995796;28;20029;-67
2022/03/31 05:53:20;;;;;;;9.38;6.32;;;;;;;2.70;100.00;100279.72;5013086;28;20064;-68
2022/03/31 05:55:45;;;;;;;13.10;5.95;;;;;;;2.69;100.00;100279.66;5015003;28;20026;-67
2022/03/31 05:58:10;;;;;;;13.40;6.30;;;;;;;2.77;100.00;100279.94;5015915;28;20041;-68
2022/03/31 06:00:36;;;;;;;12.55;7.13;;;;;;;2.70;100.00;100284.06;5015898;28;20032;-69
2022/03/31 06:03:01;;;;;;;12.57;7.15;;;;;;;2.67;100.00;100279.63;5012852;28;20040;-69
2022/03/31 06:05:27;;;;;;;14.30;7.95;;;;;;;2.62;100.00;100275.03;5014578;28;20026;-68
2022/03/31 06:07:52;;;;;;;16.00;7.68;;;;;;;2.63;100.00;100277.72;5014298;28;20021;-67
2022/03/31 06:10:20;;;;;;;15.20;7.57;;;;;;;2.59;100.00;100274.94;5014885;28;20128;-69
2022/03/31 06:12:46;;;;;;;16.30;7.47;;;;;;;2.63;100.00;100277.72;5004339;28;20104;-67
2022/03/31 06:15:11;;;;;;;15.90;7.43;;;;;;;2.63;100.00;100276.81;5015446;28;20469;-67
2022/03/31 06:17:40;;;;;;;17.75;6.85;;;;;;;2.58;100.00;100274.06;5012771;28;20045;-68
2022/03/31 06:20:07;;;;;;;12.35;6.13;;;;;;;2.58;100.00;100274.06;5013560;28;20036;-68
2022/03/31 06:22:33;;;;;;;10.77;5.63;;;;;;;2.57;100.00;100277.47;5015132;28;20056;-68
2022/03/31 06:24:58;;;;;;;10.88;5.65;;;;;;;2.58;100.00;100284.44;5013319;28;20448;-67
2022/03/31 06:27:24;;;;;;;13.32;5.40;;;;;;;2.63;100.00;100290.72;5015160;28;20413;-69
2022/03/31 06:29:49;;;;;;;8.40;4.78;;;;;;;2.72;100.00;100289.31;5011354;28;20622;-68
2022/03/31 06:32:15;;;;;;;8.25;4.75;;;;;;;2.77;100.00;100283.44;5014383;28;20103;-67
2022/03/31 06:34:41;;;;;;;9.63;5.22;;;;;;;2.79;100.00;100289.56;5014100;28;20025;-68
2022/03/31 06:37:07;;;;;;;9.30;5.53;;;;;;;2.83;100.00;100286.28;5014952;28;20049;-68
2022/03/31 06:39:33;;;;;;;8.25;4.75;;;;;;;2.91;100.00;100291.78;5015101;28;20462;-68
2022/03/31 06:41:58;;;;;;;10.57;5.18;;;;;;;2.89;100.00;100290.84;5013962;28;20048;-67
2022/03/31 06:44:24;;;;;;;12.73;4.68;;;;;;;2.97;100.00;100299.81;5014443;28;20168;-68
2022/03/31 06:46:50;;;;;;;8.65;4.55;;;;;;;2.98;100.00;100291.16;5015053;28;20479;-68
2022/03/31 06:49:15;;;;;;;13.80;4.65;;;;;;;3.09;100.00;100293.31;4997016;28;20117;-68
2022/03/31 06:51:43;;;;;;;11.45;4.95;;;;;;;3.18;100.00;100288.47;5014713;28;20026;-68
2022/03/31 06:54:09;;;;;;;10.45;4.88;;;;;;;3.24;100.00;100287.78;4997141;28;20119;-69
2022/03/31 06:56:35;;;;;;;15.00;4.82;;;;;;;3.24;100.00;100286.06;5012797;28;20105;-69
2022/03/31 06:59:01;;;;;;;11.77;5.05;;;;;;;3.37;100.00;100285.69;5013524;28;20112;-69
2022/03/31 07:01:26;;;;;;;8.82;4.35;;;;;;;3.42;100.00;100279.78;5013581;28;20029;-69
2022/03/31 07:03:52;;;;;;;8.85;4.60;;;;;;;3.54;100.00;100281.13;5014327;28;20029;-69
2022/03/31 07:06:18;;;;;;;9.60;3.97;;;;;;;3.63;100.00;100277.94;4997522;28;20027;-69
2022/03/31 07:08:43;;;;;;;10.35;3.75;;;;;;;3.65;100.00;100281.50;5020456;28;20017;-69
2022/03/31 07:11:10;;;;;;;5.82;3.90;;;;;;;3.68;100.00;100278.13;5023331;28;20163;-69
2022/03/31 07:13:36;;;;;;;7.43;4.45;;;;;;;3.83;100.00;100280.38;5012456;28;20449;-69
2022/03/31 07:16:02;;;;;;;9.18;4.10;;;;;;;3.79;100.00;100276.78;5015224;28;20022;-69
2022/03/31 07:18:27;;;;;;;10.50;4.20;;;;;;;3.87;100.00;100277.91;5026038;28;20475;-69
2022/03/31 07:20:53;;;;;;;7.55;3.97;;;;;;;3.99;100.00;100277.47;5015044;28;20450;-69
2022/03/31 07:23:23;;;;;;;10.32;3.88;;;;;;;4.04;100.00;100278.50;5018030;28;20020;-68
2022/03/31 07:25:49;;;;;;;6.43;3.88;;;;;;;4.11;100.00;100281.31;4980079;28;20064;-69
2022/03/31 07:28:15;;;;;;;5.90;4.18;;;;;;;4.23;100.00;100276.50;5013159;28;20072;-65
2022/03/31 07:30:40;;;;;;;7.47;4.07;;;;;;;4.28;100.00;100271.47;5009977;28;20494;-65
2022/03/31 07:33:06;;;;;;;7.45;3.65;;;;;;;4.32;100.00;100275.94;5021197;28;20060;-68
2022/03/31 07:35:33;;;;;;;11.65;4.13;;;;;;;4.34;100.00;100275.16;5020488;28;20026;-68
2022/03/31 07:38:03;;;;;;;12.30;4.68;;;;;;;4.30;100.00;100267.16;5013210;28;20045;-68
2022/03/31 07:40:29;;;;;;;6.70;3.70;;;;;;;4.25;100.00;100261.81;5012702;28;20025;-67
2022/03/31 07:42:55;;;;;;;4.63;4.07;;;;;;;4.18;100.00;100275.50;5017181;28;20057;-67
2022/03/31 07:45:20;;;;;;;7.22;3.28;;;;;;;4.08;100.00;100271.66;4999774;28;20030;-68
2022/03/31 07:47:46;;;;;;;10.23;4.00;;;;;;;4.07;100.00;100269.91;5017681;28;20030;-68
2022/03/31 07:50:14;;;;;;;6.72;4.35;;;;;;;4.01;100.00;100281.00;5016508;28;20087;-67
2022/03/31 07:52:41;;;;;;;7.47;3.75;;;;;;;3.96;100.00;100269.56;5022287;28;20083;-68
2022/03/31 07:55:09;;;;;;;8.45;4.22;;;;;;;3.98;100.00;100267.88;5022954;28;20053;-68
2022/03/31 07:57:35;;;;;;;9.68;4.38;;;;;;;3.99;100.00;100263.56;5021088;28;20096;-68
2022/03/31 08:00:00;;;;;;;4.47;3.95;;;;;;;4.10;100.00;100256.13;5013697;28;20413;-68
2022/03/31 08:02:26;;;;;;;7.10;4.30;;;;;;;4.26;100.00;100255.78;5010910;28;20030;-68
2022/03/31 08:04:52;;;;;;;8.88;4.03;;;;;;;4.45;100.00;100248.53;5011560;28;20084;-68
2022/03/31 08:07:18;;;;;;;6.13;4.15;;;;;;;4.61;100.00;100253.41;5015460;28;20092;-68
2022/03/31 08:09:43;;;;;;;9.13;3.90;;;;;;;4.73;100.00;100253.81;5022013;28;20461;-68
2022/03/31 08:12:08;;;;;;;6.22;3.55;;;;;;;4.92;100.00;100249.13;5014506;28;20040;-67
2022/03/31 08:14:34;;;;;;;6.00;3.67;;;;;;;5.09;100.00;100248.72;5010270;28;20053;-68
2022/03/31 08:16:59;;;;;;;7.07;3.60;;;;;;;5.24;100.00;100244.84;5014219;28;20053;-68
2022/03/31 08:19:27;;;;;;;5.72;3.40;;;;;;;5.24;100.00;100249.19;5024907;28;20135;-68
2022/03/31 08:21:53;;;;;;;4.25;3.42;;;;;;;5.30;100.00;100243.25;5015946;28;20084;-68
2022/03/31 08:24:18;;;;;;;3.53;3.22;;;;;;;5.32;100.00;100244.19;5028033;28;20045;-67
2022/03/31 08:26:46;;;;;;;5.82;3.30;;;;;;;5.42;100.00;100240.13;5013500;28;20091;-67
2022/03/31 08:29:12;;;;;;;4.60;3.50;;;;;;;5.49;100.00;100236.81;5021742;28;20057;-67
2022/03/31 08:31:38;;;;;;;5.97;3.67;;;;;;;5.70;100.00;100240.00;5019509;28;20041;-69
2022/03/31 08:34:05;;;;;;;7.53;3.60;;;;;;;5.60;100.00;100232.75;5012607;28;20025;-70
2022/03/31 08:36:30;;;;;;;4.20;3.42;;;;;;;5.61;100.00;100239.75;5028796;28;20032;-69
2022/03/31 08:38:56;;;;;;;4.00;3.38;;;;;;;5.59;100.00;100241.47;5020499;28;20409;-70
2022/03/31 08:41:28;;;;;;;4.35;3.58;;;;;;;5.48;100.00;100242.88;5015557;28;20045;-67
2022/03/31 08:43:53;;;;;;;5.82;3.10;;;;;;;5.43;100.00;100239.28;5010476;28;20022;-68
2022/03/31 08:46:21;;;;;;;6.28;3.67;;;;;;;5.45;100.00;100242.81;5008636;28;20446;-68
2022/03/31 08:48:46;;;;;;;6.32;3.53;;;;;;;5.47;100.00;100244.63;5026516;28;20409;-68
2022/03/31 08:51:12;;;;;;;5.40;4.63;;;;;;;5.45;100.00;100235.84;5021994;28;20033;-67
2022/03/31 08:53:38;;;;;;;3.55;3.10;;;;;;;5.47;100.00;100236.78;5018898;28;20037;-67
2022/03/31 08:56:04;;;;;;;3.53;3.13;;;;;;;5.54;100.00;100235.22;5029078;28;20025;-67
2022/03/31 08:58:30;;;;;;;3.80;3.40;;;;;;;5.50;100.00;100233.38;5013500;28;20048;-67
2022/03/31 09:00:56;;;;;;;3.60;3.05;;;;;;;5.42;100.00;100225.34;5011225;28;20022;-68
2022/03/31 09:03:32;;;;;;;3.35;3.05;;;;;;;5.29;100.00;100225.81;5011572;28;20105;-68
2022/03/31 09:05:57;;;;;;;7.32;3.30;;;;;;;5.23;100.00;100231.75;5017322;28;20026;-67
2022/03/31 09:08:23;;;;;;;4.28;3.17;;;;;;;5.19;100.00;100227.31;5014711;28;20560;-67
2022/03/31 09:10:53;;;;;;;4.05;3.00;;;;;;;5.04;100.00;100233.84;5012368;28;20026;-68
2022/03/31 09:13:28;;;;;;;5.38;3.08;;;;;;;5.00;100.00;100228.50;5023095;28;20029;-68
2022/03/31 09:16:02;;;;;;;3.72;2.92;;;;;;;4.95;100.00;100223.16;5022030;28;20032;-67
2022/03/31 09:18:29;;;;;;;;;;;;;;;4.87;100.00;100238.56;5006139;28;20057;-66
2022/03/31 09:20:57;;;;;;;6.53;3.47;;;;;;;4.92;100.00;100224.78;5012039;28;19917;-68
2022/03/31 09:23:29;;;;;;;5.00;3.00;;;;;;;4.96;100.00;100230.13;4994134;28;20367;-67
2022/03/31 09:26:08;;;;;;;4.82;3.03;;;;;;;5.07;100.00;100236.56;5028141;28;20031;-68
2022/03/31 09:28:34;;;;;;;3.35;3.05;;;;;;;5.20;100.00;100223.84;5001577;28;20029;-67
2022/03/31 09:30:59;;;;;;;4.70;2.65;;;;;;;5.24;100.00;100225.72;5016091;28;20045;-67
2022/03/31 09:33:35;;;;;;;3.65;3.08;;;;;;;5.28;100.00;100227.56;5023779;28;20034;-68
2022/03/31 09:36:06;;;;;;;2.78;2.50;;;;;;;5.24;100.00;100236.16;5014062;28;20061;-68
2022/03/31 09:38:35;;;;;;;4.95;3.35;;;;;;;5.16;100.00;100235.91;5011663;28;20034;-67
2022/03/31 09:41:03;;;;;;;2.90;2.20;;;;;;;5.17;100.00;100235.09;5015241;28;20365;-67
2022/03/31 09:43:37;;;;;;;3.95;2.88;;;;;;;5.11;100.00;100219.25;5013488;28;20033;-67
2022/03/31 09:46:02;;;;;;;4.93;2.95;;;;;;;5.06;100.00;100219.13;5011044;28;20029;-68
2022/03/31 09:48:28;;;;;;;5.15;3.38;;;;;;;5.09;100.00;100220.03;5016039;28;20018;-67
2022/03/31 09:50:53;;;;;;;3.20;2.90;;;;;;;5.14;100.00;100213.25;5025003;28;20030;-68
2022/03/31 09:53:19;;;;;;;3.00;2.70;;;;;;;5.23;100.00;100210.91;5010971;28;20468;-68
2022/03/31 09:55:45;;;;;;;3.53;2.67;;;;;;;5.26;100.00;100213.59;5014593;28;20037;-67
2022/03/31 09:58:18;;;;;;;5.63;2.60;;;;;;;5.43;100.00;100218.41;5013554;28;20071;-68
2022/03/31 10:00:45;;;;;;;2.88;2.35;;;;;;;5.48;100.00;100212.47;5012587;28;20038;-69
2022/03/31 10:03:15;;;;;;;3.13;2.70;;;;;;;5.71;100.00;100206.94;5015260;28;20026;-67
2022/03/31 10:05:42;;;;;;;4.93;2.85;;;;;;;5.87;100.00;100203.00;5025533;28;20017;-67
2022/03/31 10:08:10;;;;;;;2.63;2.38;;;;;;;5.97;100.00;100204.13;5013115;28;20030;-67
2022/03/31 10:10:36;;;;;;;3.40;2.60;;;;;;;5.85;100.00;100205.59;5004016;28;20029;-67
2022/03/31 10:13:12;;;;;;;2.80;2.60;;;;;;;5.97;100.00;100199.78;5017141;28;20044;-68
2022/03/31 10:15:40;;;;;;;2.78;2.58;;;;;;;6.11;100.00;100194.06;5018189;28;20489;-68
2022/03/31 10:18:06;;;;;;;5.15;2.70;;;;;;;6.04;100.00;100196.50;5012579;28;20111;-68
2022/03/31 10:20:31;;;;;;;4.30;2.60;;;;;;;6.17;100.00;100195.09;5000754;28;20025;-68
2022/03/31 10:25:47;;;;;;;2.90;2.60;;;;;;;6.43;100.00;100189.59;5015984;28;20044;-69
2022/03/31 10:28:15;;;;;;;3.28;2.60;;;;;;;6.66;100.00;100195.34;5014500;28;20029;-66
2022/03/31 10:30:52;;;;;;;3.45;2.78;;;;;;;6.74;99.45;100195.47;5013188;28;20040;-68
2022/03/31 10:33:29;;;;;;;2.72;2.45;;;;;;;6.84;99.51;100196.59;5012545;28;20132;-68
2022/03/31 10:36:02;;;;;;;2.92;2.58;;;;;;;6.79;96.22;100182.53;5015498;28;20021;-68
2022/03/31 10:38:28;;;;;;;2.45;2.25;;;;;;;6.84;98.60;100188.75;5006127;28;20056;-68
2022/03/31 10:41:02;;;;;;;2.97;2.50;;;;;;;6.86;98.58;100190.53;5017224;28;20033;-67
2022/03/31 10:43:30;;;;;;;2.88;2.58;;;;;;;6.89;98.17;100185.38;5017168;28;20093;-68
2022/03/31 10:45:58;;;;;;;2.50;2.22;;;;;;;6.83;97.57;100176.50;5023775;28;20029;-66
2022/03/31 10:48:26;;;;;;;2.67;2.47;;;;;;;6.77;95.99;100173.75;5018996;28;20648;-66
2022/03/31 10:51:08;;;;;;;2.60;2.40;;;;;;;6.74;98.14;100180.69;5026704;28;20087;-67
2022/03/31 10:53:36;;;;;;;2.92;2.63;;;;;;;6.72;96.97;100169.31;4996993;28;20144;-66
2022/03/31 10:56:03;;;;;;;2.75;2.55;;;;;;;6.73;100.00;100173.69;5014426;28;20492;-66
2022/03/31 10:58:30;;;;;;;4.13;2.83;;;;;;;6.71;97.36;100166.66;5014388;28;20109;-66
2022/03/31 11:00:57;;;;;;;2.70;2.50;;;;;;;6.72;95.36;100156.22;5015963;28;20037;-66
2022/03/31 11:03:23;;;;;;;3.17;2.65;;;;;;;6.87;94.83;100166.13;5017639;28;20065;-66
2022/03/31 11:05:49;;;;;;;2.40;2.13;;;;;;;6.87;95.56;100166.13;4996613;28;20057;-68
2022/03/31 11:08:18;;;;;;;3.22;2.92;;;;;;;6.78;96.27;100165.94;5020181;28;20030;-68
2022/03/31 11:10:53;;;;;;;3.05;2.75;;;;;;;6.65;96.48;100164.81;5026708;28;20022;-68
2022/03/31 11:13:30;;;;;;;3.78;3.00;;;;;;;6.66;98.32;100165.66;5026245;28;20022;-68
2022/03/31 11:15:56;;;;;;;3.35;3.05;;;;;;;6.64;96.82;100163.03;5016425;28;20033;-68
2022/03/31 11:18:23;;;;;;;4.45;3.13;;;;;;;6.56;95.70;100161.97;5008408;28;20070;-68
2022/03/31 11:20:54;;;;;;;3.03;2.72;;;;;;;6.65;96.98;100170.03;5016934;28;20060;-68
2022/03/31 11:23:20;;;;;;;3.42;3.13;;;;;;;6.52;95.83;100163.63;5025602;28;20028;-68
2022/03/31 11:25:46;;;;;;;5.07;2.85;;;;;;;6.40;96.57;100163.38;5017083;28;20022;-68
2022/03/31 11:28:12;;;;;;;3.83;2.75;;;;;;;6.37;98.16;100164.19;5011702;28;20488;-68
2022/03/31 11:30:38;;;;;;;3.72;3.03;;;;;;;6.28;98.36;100158.78;5017352;28;20429;-68
2022/03/31 11:33:04;;;;;;;3.63;3.33;;;;;;;6.18;97.32;100156.78;5023034;28;20025;-68